Time;durP1;ratioP1;P1;durP2;ratioP2;P2;SDS_P1;SDS_P2;PMS_P1;PMS_P2;Temp;Humidity;BMP_temperature;BMP_pressure;BME280_temperature;BME280_humidity;BME280_pressure;Samples;Min_cycle;Max_cycle;Signal;HPM_P1;HPM_P2
2024/01/01 00:01:07;;;;;;;298.38;228.73;;;9.70;99.90;;;;;;5033513;28;20240;-86
2024/01/01 00:03:36;;;;;;;273.73;220.25;;;9.70;99.90;;;;;;5034293;28;20248;-86
2024/01/01 00:06:03;;;;;;;257.65;205.90;;;9.70;99.90;;;;;;5033127;28;20225;-86
2024/01/01 00:08:30;;;;;;;233.80;182.40;;;9.70;99.90;;;;;;5033965;28;20233;-86
2024/01/01 00:10:59;;;;;;;268.67;202.95;;;9.70;99.90;;;;;;5034000;28;20233;-79
2024/01/01 00:13:26;;;;;;;229.05;180.25;;;9.70;99.90;;;;;;5033474;28;20287;-86
2024/01/01 00:15:53;;;;;;;266.15;209.70;;;9.70;99.90;;;;;;5034160;28;20279;-79
2024/01/01 00:18:20;;;;;;;247.02;186.20;;;9.60;99.90;;;;;;5032553;28;20308;-78
2024/01/01 00:20:47;;;;;;;190.35;152.43;;;9.60;99.90;;;;;;5032529;28;20229;-78
2024/01/01 00:23:16;;;;;;;199.88;160.15;;;9.60;99.90;;;;;;5032688;28;20229;-79
2024/01/01 00:25:43;;;;;;;218.98;173.52;;;9.70;99.90;;;;;;5033211;28;20220;-79
2024/01/01 00:28:11;;;;;;;239.55;174.63;;;9.60;99.90;;;;;;5032496;28;20228;-79
2024/01/01 00:30:39;;;;;;;209.82;161.88;;;9.60;99.90;;;;;;5033319;28;20225;-79
2024/01/01 00:33:06;;;;;;;181.00;140.20;;;9.60;99.90;;;;;;5032808;28;20225;-79
2024/01/01 00:35:35;;;;;;;167.18;130.57;;;9.70;99.90;;;;;;5032507;28;20232;-79
2024/01/01 00:38:02;;;;;;;162.65;129.40;;;9.60;99.90;;;;;;5032312;28;20221;-86
2024/01/01 00:40:29;;;;;;;164.10;123.40;;;9.60;99.90;;;;;;5033375;28;20672;-79
2024/01/01 00:42:59;;;;;;;158.85;121.43;;;9.60;99.90;;;;;;5033220;28;20573;-79
2024/01/01 00:45:27;;;;;;;124.63;101.57;;;9.60;99.90;;;;;;5031675;28;20287;-78
2024/01/01 00:47:54;;;;;;;105.47;86.47;;;9.50;99.90;;;;;;5032774;28;20689;-79
2024/01/01 00:50:22;;;;;;;133.82;96.57;;;9.50;99.90;;;;;;5024529;28;20241;-79
2024/01/01 00:52:49;;;;;;;101.65;84.88;;;9.50;99.90;;;;;;5035934;28;20312;-79
2024/01/01 00:55:16;;;;;;;96.63;76.47;;;9.50;99.90;;;;;;5037324;28;20245;-86
2024/01/01 00:57:43;;;;;;;108.57;81.40;;;9.50;99.90;;;;;;5038761;28;20229;-86
2024/01/01 01:00:14;;;;;;;98.97;73.80;;;9.50;99.90;;;;;;5037272;28;20232;-85
2024/01/01 01:02:42;;;;;;;96.45;72.95;;;9.50;99.90;;;;;;5039030;28;20221;-86
2024/01/01 01:05:09;;;;;;;86.20;69.82;;;9.40;99.90;;;;;;5038377;28;20240;-86
2024/01/01 01:07:36;;;;;;;81.38;65.72;;;9.50;99.90;;;;;;5037597;28;20633;-86
2024/01/01 01:10:05;;;;;;;72.22;61.20;;;9.40;99.90;;;;;;5038114;28;20263;-86
2024/01/01 01:12:32;;;;;;;77.50;60.78;;;9.40;99.90;;;;;;5036423;28;20233;-86
2024/01/01 01:14:59;;;;;;;230.13;156.32;;;9.40;99.90;;;;;;5037377;28;20742;-86
2024/01/01 01:17:32;;;;;;;223.75;159.95;;;9.40;99.90;;;;;;5037269;28;20221;-86
2024/01/01 01:20:02;;;;;;;138.38;106.22;;;9.40;99.90;;;;;;5037247;28;20225;-79
2024/01/01 01:22:32;;;;;;;72.00;57.88;;;9.40;99.90;;;;;;5036311;28;20229;-79
2024/01/01 01:24:59;;;;;;;63.15;51.05;;;9.30;99.90;;;;;;5036455;28;20228;-79
2024/01/01 01:27:29;;;;;;;61.40;48.70;;;9.40;99.90;;;;;;5036188;28;20681;-80
2024/01/01 01:29:56;;;;;;;62.58;46.58;;;9.30;99.90;;;;;;5036859;28;20229;-86
2024/01/01 01:32:23;;;;;;;58.33;41.85;;;9.30;99.90;;;;;;5047350;28;20225;-87
2024/01/01 01:34:51;;;;;;;45.08;36.53;;;9.30;99.90;;;;;;5042412;28;20222;-86
2024/01/01 01:37:20;;;;;;;43.55;36.47;;;9.30;99.90;;;;;;5036309;28;20303;-86
2024/01/01 01:39:47;;;;;;;45.42;35.70;;;9.30;99.90;;;;;;5036385;28;20232;-85
2024/01/01 01:42:13;;;;;;;38.40;31.60;;;9.30;99.90;;;;;;5036225;28;20221;-86
2024/01/01 01:44:40;;;;;;;43.58;32.13;;;9.30;99.90;;;;;;5035738;28;20217;-86
2024/01/01 01:47:08;;;;;;;38.88;31.10;;;9.30;99.90;;;;;;5036029;28;20225;-79
2024/01/01 01:49:35;;;;;;;35.63;28.95;;;9.30;99.90;;;;;;5035615;28;20224;-78
2024/01/01 01:52:03;;;;;;;36.17;27.90;;;9.30;99.90;;;;;;5035476;28;20229;-79
2024/01/01 01:54:34;;;;;;;35.63;28.52;;;9.30;99.90;;;;;;5035925;28;20307;-79
2024/01/01 01:57:04;;;;;;;27.75;22.70;;;9.20;99.90;;;;;;5035672;28;20221;-79
2024/01/01 01:59:32;;;;;;;29.15;24.98;;;9.20;99.90;;;;;;5034251;28;20308;-79
2024/01/01 02:02:00;;;;;;;37.90;28.35;;;9.20;99.90;;;;;;5040203;28;20232;-78
2024/01/01 02:04:27;;;;;;;37.15;28.73;;;9.20;99.90;;;;;;5036475;28;20240;-86
2024/01/01 02:06:54;;;;;;;33.70;26.98;;;9.20;99.90;;;;;;5035644;28;20563;-85
2024/01/01 02:09:21;;;;;;;33.55;25.60;;;9.20;99.90;;;;;;5035622;28;20229;-79
2024/01/01 02:11:49;;;;;;;37.85;26.55;;;9.20;99.90;;;;;;5035522;28;20236;-78
2024/01/01 02:14:17;;;;;;;39.40;30.98;;;9.20;99.90;;;;;;5035965;28;20673;-86
2024/01/01 02:16:48;;;;;;;37.88;33.05;;;9.20;99.90;;;;;;5035479;28;20305;-78
2024/01/01 02:19:22;;;;;;;57.08;39.45;;;9.30;99.90;;;;;;5035699;28;20255;-78
2024/01/01 02:21:51;;;;;;;48.50;38.10;;;9.20;99.90;;;;;;5034970;28;20231;-78
2024/01/01 02:24:20;;;;;;;47.30;37.92;;;9.20;99.90;;;;;;5040222;28;20217;-85
2024/01/01 02:26:48;;;;;;;45.40;36.33;;;9.20;99.90;;;;;;5038061;28;20284;-79
2024/01/01 02:29:16;;;;;;;41.10;31.38;;;9.20;99.90;;;;;;5034906;28;20225;-79
2024/01/01 02:31:43;;;;;;;43.90;34.58;;;9.10;99.90;;;;;;5035170;28;20229;-77
2024/01/01 02:34:11;;;;;;;44.80;35.05;;;9.10;99.90;;;;;;5033849;28;20673;-87
2024/01/01 02:36:40;;;;;;;42.80;30.48;;;9.10;99.90;;;;;;5034302;28;20260;-85
2024/01/01 02:39:09;;;;;;;44.47;35.28;;;9.10;99.90;;;;;;5034430;28;20291;-85
2024/01/01 02:41:39;;;;;;;33.60;28.33;;;9.10;99.90;;;;;;5034642;28;20243;-85
2024/01/01 02:44:06;;;;;;;35.03;29.75;;;9.10;99.90;;;;;;5034506;28;20230;-78
2024/01/01 02:46:36;;;;;;;51.30;42.10;;;9.10;99.90;;;;;;5035649;28;20232;-86
2024/01/01 02:49:03;;;;;;;42.47;31.45;;;9.10;99.90;;;;;;5034767;28;20243;-85
2024/01/01 02:51:29;;;;;;;38.40;29.65;;;9.00;99.90;;;;;;5035129;28;20704;-86
2024/01/01 02:53:57;;;;;;;31.85;25.08;;;9.00;99.90;;;;;;5034274;28;20241;-78
2024/01/01 02:56:24;;;;;;;25.15;21.55;;;9.10;99.90;;;;;;5035240;28;20221;-86
2024/01/01 02:58:55;;;;;;;46.92;27.48;;;9.10;99.90;;;;;;5034865;28;20673;-78
2024/01/01 03:01:22;;;;;;;35.03;23.58;;;9.10;99.90;;;;;;5035190;28;20306;-86
2024/01/01 03:03:50;;;;;;;25.40;21.35;;;9.10;99.90;;;;;;5034481;28;20271;-84
2024/01/01 03:06:20;;;;;;;20.67;17.15;;;9.00;99.90;;;;;;5034933;28;20226;-78
2024/01/01 03:08:48;;;;;;;23.95;18.10;;;9.00;99.90;;;;;;5035060;28;20230;-86
2024/01/01 03:11:15;;;;;;;23.70;18.23;;;9.00;99.90;;;;;;5034319;28;20572;-86
2024/01/01 03:13:42;;;;;;;19.65;14.82;;;9.00;99.90;;;;;;5035015;28;20225;-86
2024/01/01 03:16:11;;;;;;;36.97;25.20;;;9.00;99.90;;;;;;5034138;28;20225;-85
2024/01/01 03:18:38;;;;;;;26.00;18.98;;;9.00;99.90;;;;;;5034800;28;20229;-78
2024/01/01 03:21:06;;;;;;;18.85;16.45;;;9.00;99.90;;;;;;5033558;28;20272;-77
2024/01/01 03:23:33;;;;;;;16.27;14.55;;;9.00;99.90;;;;;;5034220;28;20275;-78
2024/01/01 03:26:00;;;;;;;18.52;14.38;;;9.00;99.90;;;;;;5034251;28;20688;-85
2024/01/01 03:28:28;;;;;;;18.63;13.95;;;9.00;99.90;;;;;;5034216;28;20245;-85
2024/01/01 03:30:55;;;;;;;19.83;14.20;;;9.00;99.90;;;;;;5034022;28;20225;-78
2024/01/01 03:33:26;;;;;;;19.17;16.10;;;9.00;99.90;;;;;;5032320;28;20233;-78
2024/01/01 03:35:53;;;;;;;34.42;23.77;;;9.00;99.90;;;;;;5034398;28;20229;-78
2024/01/01 03:38:21;;;;;;;28.98;19.65;;;8.90;99.90;;;;;;5033783;28;20308;-85
2024/01/01 03:40:48;;;;;;;22.70;17.27;;;8.90;99.90;;;;;;5034086;28;20232;-85
2024/01/01 03:43:15;;;;;;;18.08;15.63;;;8.90;99.90;;;;;;5033698;28;20229;-78
2024/01/01 03:45:45;;;;;;;15.88;13.32;;;8.90;99.90;;;;;;5033272;28;20236;-77
2024/01/01 03:48:12;;;;;;;16.52;12.32;;;9.00;99.90;;;;;;5025331;28;20232;-78
2024/01/01 03:50:40;;;;;;;16.90;12.52;;;9.00;99.90;;;;;;5047922;28;20237;-85
2024/01/01 03:53:39;;;;;;;14.93;12.18;;;9.00;99.90;;;;;;5033846;28;20557;-85
2024/01/01 03:56:07;;;;;;;14.75;11.00;;;9.00;99.90;;;;;;5033725;28;20228;-85
2024/01/01 03:58:37;;;;;;;17.15;12.02;;;9.00;99.90;;;;;;5033235;28;20225;-85
2024/01/01 04:01:04;;;;;;;13.32;11.93;;;9.00;99.90;;;;;;5033135;28;20631;-78
2024/01/01 04:03:31;;;;;;;14.23;12.05;;;9.00;99.90;;;;;;5037339;28;20227;-85
2024/01/01 04:05:59;;;;;;;16.80;12.93;;;9.00;99.90;;;;;;5033983;28;20225;-85
2024/01/01 04:08:26;;;;;;;14.45;12.30;;;9.00;99.90;;;;;;5033737;28;20225;-78
2024/01/01 04:10:53;;;;;;;14.50;12.98;;;9.00;99.90;;;;;;5032898;28;20248;-85
2024/01/01 04:13:20;;;;;;;14.93;11.68;;;8.90;99.90;;;;;;5034353;28;20550;-78
2024/01/01 04:15:47;;;;;;;16.70;14.07;;;8.90;99.90;;;;;;5033360;28;20236;-84
2024/01/01 04:18:17;;;;;;;15.88;13.25;;;8.90;99.90;;;;;;5027978;28;20634;-78
2024/01/01 04:20:44;;;;;;;19.10;12.25;;;8.90;99.90;;;;;;5044738;28;20244;-85
2024/01/01 04:23:12;;;;;;;16.02;14.10;;;8.90;99.90;;;;;;5032842;28;20561;-78
2024/01/01 04:25:39;;;;;;;17.63;12.48;;;8.90;99.90;;;;;;5033316;28;20237;-79
2024/01/01 04:28:09;;;;;;;17.88;14.40;;;8.90;99.90;;;;;;5032502;28;20228;-79
2024/01/01 04:30:36;;;;;;;16.15;12.25;;;8.90;99.90;;;;;;5033378;28;20666;-77
2024/01/01 04:33:04;;;;;;;14.63;13.07;;;8.90;99.90;;;;;;5032623;28;20631;-78
2024/01/01 04:35:32;;;;;;;18.60;12.82;;;8.90;99.90;;;;;;5033227;28;20681;-78
2024/01/01 04:38:01;;;;;;;21.35;13.70;;;8.90;99.90;;;;;;5032542;28;20300;-78
2024/01/01 04:40:29;;;;;;;17.85;13.18;;;8.90;99.90;;;;;;5033537;28;20240;-85
2024/01/01 04:42:59;;;;;;;17.40;13.60;;;8.90;99.90;;;;;;5032893;28;20221;-85
2024/01/01 04:45:26;;;;;;;19.30;14.05;;;8.90;99.90;;;;;;5033265;28;20236;-78
2024/01/01 04:47:53;;;;;;;19.90;13.95;;;8.90;99.90;;;;;;5031717;28;20673;-78
2024/01/01 04:50:20;;;;;;;17.15;12.90;;;8.90;99.90;;;;;;5032623;28;20229;-78
2024/01/01 04:52:47;;;;;;;14.27;11.30;;;8.90;99.90;;;;;;5036994;28;20226;-78
2024/01/01 04:55:14;;;;;;;21.80;13.23;;;8.90;99.90;;;;;;5033020;28;20227;-85
2024/01/01 04:57:43;;;;;;;16.95;13.40;;;8.90;99.90;;;;;;5032849;28;20638;-78
2024/01/01 05:00:11;;;;;;;16.83;12.20;;;8.90;99.90;;;;;;5033097;28;20236;-79
2024/01/01 05:02:38;;;;;;;24.33;13.60;;;8.90;99.90;;;;;;5033402;28;20229;-85
2024/01/01 05:05:08;;;;;;;22.15;13.95;;;8.90;99.90;;;;;;5033158;28;20799;-85
2024/01/01 05:07:35;;;;;;;16.65;13.98;;;8.90;99.90;;;;;;5032216;28;20393;-78
2024/01/01 05:10:02;;;;;;;15.43;13.52;;;8.90;99.90;;;;;;5032916;28;20217;-77
2024/01/01 05:12:29;;;;;;;15.65;12.85;;;9.00;99.90;;;;;;5032984;28;20232;-77
2024/01/01 05:14:59;;;;;;;17.00;12.27;;;9.00;99.90;;;;;;5032841;28;20272;-77
2024/01/01 05:17:26;;;;;;;19.25;12.40;;;9.00;99.90;;;;;;5033352;28;20576;-78
2024/01/01 05:19:54;;;;;;;16.80;12.95;;;9.00;99.90;;;;;;5031961;28;20244;-77
2024/01/01 05:22:21;;;;;;;14.13;12.25;;;9.00;99.90;;;;;;5032974;28;20232;-78
2024/01/01 05:24:48;;;;;;;17.98;14.68;;;9.00;99.90;;;;;;5032553;28;20225;-85
2024/01/01 05:27:15;;;;;;;17.02;13.05;;;9.00;99.90;;;;;;5032456;28;20225;-85
2024/01/01 05:29:42;;;;;;;20.88;13.60;;;9.00;99.90;;;;;;5032381;28;20236;-84
2024/01/01 05:32:18;;;;;;;20.02;14.35;;;9.00;99.90;;;;;;5033017;28;20232;-85
2024/01/01 05:34:45;;;;;;;15.55;13.27;;;9.10;99.90;;;;;;5032504;28;20673;-84
2024/01/01 05:37:12;;;;;;;18.38;14.50;;;9.10;99.90;;;;;;5033064;28;20548;-78
2024/01/01 05:39:40;;;;;;;15.85;12.70;;;9.00;99.90;;;;;;5035062;28;20225;-84
2024/01/01 05:42:06;;;;;;;15.93;14.13;;;9.10;99.90;;;;;;5036543;28;20229;-77
2024/01/01 05:44:34;;;;;;;21.65;14.82;;;9.00;99.90;;;;;;5036943;28;20260;-78
2024/01/01 05:47:01;;;;;;;15.98;11.27;;;9.10;99.90;;;;;;5037182;28;20249;-85
2024/01/01 05:49:29;;;;;;;19.77;13.82;;;9.10;99.90;;;;;;5036708;28;20287;-85
2024/01/01 05:51:56;;;;;;;18.95;13.65;;;9.00;99.90;;;;;;5036256;28;20236;-85
2024/01/01 05:54:23;;;;;;;15.05;11.93;;;9.00;99.90;;;;;;5036441;28;20240;-85
2024/01/01 05:56:50;;;;;;;19.05;14.07;;;9.00;99.90;;;;;;5036311;28;20222;-85
2024/01/01 05:59:17;;;;;;;12.98;11.55;;;8.90;99.90;;;;;;5035950;28;20221;-78
2024/01/01 06:01:45;;;;;;;12.82;10.23;;;8.90;99.90;;;;;;5042547;28;20231;-84
2024/01/01 06:04:12;;;;;;;16.50;12.48;;;8.90;99.90;;;;;;5036270;28;20248;-85
2024/01/01 06:06:40;;;;;;;15.50;10.95;;;8.90;99.90;;;;;;5036217;28;20233;-85
2024/01/01 06:09:13;;;;;;;14.15;10.35;;;8.90;99.90;;;;;;5035534;28;20664;-78
2024/01/01 06:11:40;;;;;;;16.08;11.27;;;8.90;99.90;;;;;;5035075;28;20241;-78
2024/01/01 06:14:08;;;;;;;14.25;11.65;;;8.90;99.90;;;;;;5035588;28;20581;-85
2024/01/01 06:16:35;;;;;;;17.52;11.82;;;8.90;99.90;;;;;;5032836;28;20706;-85
2024/01/01 06:19:02;;;;;;;17.38;11.88;;;8.90;99.90;;;;;;5044661;28;20230;-84
2024/01/01 06:21:29;;;;;;;10.88;9.43;;;8.90;99.90;;;;;;5035883;28;20673;-85
2024/01/01 06:23:57;;;;;;;11.80;9.98;;;8.90;99.90;;;;;;5035602;28;20233;-85
2024/01/01 06:26:24;;;;;;;11.48;9.45;;;8.90;99.90;;;;;;5035700;28;20225;-77
2024/01/01 06:28:51;;;;;;;12.45;8.90;;;8.90;99.90;;;;;;5034974;28;20320;-78
2024/01/01 06:31:18;;;;;;;9.23;8.32;;;9.00;99.90;;;;;;5035468;28;20221;-85
2024/01/01 06:33:46;;;;;;;10.18;8.30;;;9.00;99.90;;;;;;5035365;28;20234;-85
2024/01/01 06:36:13;;;;;;;10.63;8.27;;;9.00;99.90;;;;;;5035099;28;20655;-78
2024/01/01 06:38:40;;;;;;;16.27;10.05;;;9.00;99.90;;;;;;5035505;28;20677;-85
2024/01/01 06:41:08;;;;;;;11.60;9.93;;;9.00;99.90;;;;;;5034202;28;20225;-85
2024/01/01 06:43:35;;;;;;;10.38;7.68;;;9.10;99.90;;;;;;5035747;28;20226;-85
2024/01/01 06:46:02;;;;;;;11.93;9.60;;;9.10;99.90;;;;;;5036655;28;20240;-85
2024/01/01 06:48:29;;;;;;;9.48;8.10;;;9.10;99.90;;;;;;5037165;28;20228;-78
2024/01/01 06:50:59;;;;;;;12.02;8.63;;;9.10;99.90;;;;;;5034722;28;20221;-78
2024/01/01 06:53:30;;;;;;;12.52;8.60;;;9.10;99.90;;;;;;5035293;28;20225;-85
2024/01/01 06:55:57;;;;;;;8.68;7.13;;;9.10;99.90;;;;;;5034385;28;20236;-78
2024/01/01 06:58:26;;;;;;;12.35;8.40;;;9.10;99.90;;;;;;5034922;28;20248;-78
2024/01/01 07:00:52;;;;;;;10.55;7.50;;;9.10;99.90;;;;;;5034397;28;20230;-78
2024/01/01 07:03:19;;;;;;;14.48;9.45;;;9.10;99.90;;;;;;5034932;28;20561;-78
2024/01/01 07:05:47;;;;;;;8.63;7.80;;;9.10;99.90;;;;;;5034893;28;20577;-85
2024/01/01 07:08:14;;;;;;;10.32;8.15;;;9.10;99.90;;;;;;5034313;28;20234;-85
2024/01/01 07:10:44;;;;;;;13.85;7.82;;;9.10;99.90;;;;;;5034752;28;20225;-85
2024/01/01 07:13:11;;;;;;;10.63;7.18;;;9.10;99.90;;;;;;5034324;28;20255;-85
2024/01/01 07:15:40;;;;;;;12.07;8.75;;;9.10;99.90;;;;;;5034916;28;20225;-85
2024/01/01 07:18:07;;;;;;;8.60;6.43;;;9.10;99.90;;;;;;5034157;28;20221;-78
2024/01/01 07:20:34;;;;;;;9.63;7.90;;;9.10;99.90;;;;;;5034366;28;20252;-84
2024/01/01 07:23:02;;;;;;;7.55;6.38;;;9.20;99.90;;;;;;5033780;28;20229;-79
2024/01/01 07:25:29;;;;;;;14.52;7.03;;;9.20;99.90;;;;;;5034632;28;20243;-78
2024/01/01 07:27:56;;;;;;;7.43;5.10;;;9.20;99.90;;;;;;5033849;28;20226;-84
2024/01/01 07:30:23;;;;;;;6.95;5.93;;;9.20;99.90;;;;;;5034382;28;20279;-78
2024/01/01 07:32:51;;;;;;;8.55;7.13;;;9.20;99.90;;;;;;5034050;28;20291;-85
2024/01/01 07:35:18;;;;;;;6.78;5.47;;;9.20;99.90;;;;;;5033791;28;20661;-85
2024/01/01 07:37:45;;;;;;;7.65;5.30;;;9.20;99.90;;;;;;5034164;28;20384;-85
2024/01/01 07:40:13;;;;;;;8.27;6.70;;;9.30;99.90;;;;;;5033793;28;20221;-78
2024/01/01 07:42:40;;;;;;;8.07;5.30;;;9.30;99.90;;;;;;5034145;28;20232;-78
2024/01/01 07:45:09;;;;;;;8.30;6.68;;;9.30;99.90;;;;;;5033726;28;20229;-77
2024/01/01 07:47:37;;;;;;;11.30;6.90;;;9.30;99.90;;;;;;5034307;28;20727;-85
2024/01/01 07:50:07;;;;;;;10.90;6.07;;;9.20;99.90;;;;;;5033712;28;20618;-84
2024/01/01 07:52:34;;;;;;;9.77;5.90;;;9.20;99.90;;;;;;5033857;28;20281;-85
2024/01/01 07:55:01;;;;;;;8.90;6.22;;;9.20;99.90;;;;;;5033588;28;20228;-84
2024/01/01 07:57:28;;;;;;;7.18;5.70;;;9.30;99.90;;;;;;5034351;28;20230;-78
2024/01/01 07:59:58;;;;;;;8.30;5.10;;;9.20;99.90;;;;;;5033163;28;20232;-78
2024/01/01 08:02:25;;;;;;;6.00;4.32;;;9.30;99.90;;;;;;5032734;28;20228;-78
2024/01/01 08:04:53;;;;;;;7.95;5.47;;;9.30;99.90;;;;;;5034017;28;20229;-85
2024/01/01 08:07:21;;;;;;;9.15;6.53;;;9.40;99.90;;;;;;5033473;28;20236;-85
2024/01/01 08:09:49;;;;;;;6.90;5.45;;;9.40;99.90;;;;;;5034065;28;20723;-78
2024/01/01 08:12:18;;;;;;;6.75;5.75;;;9.30;99.90;;;;;;5033033;28;20610;-77
2024/01/01 08:14:45;;;;;;;7.35;4.85;;;9.40;99.90;;;;;;5033183;28;20247;-77
2024/01/01 08:17:12;;;;;;;7.00;4.97;;;9.40;99.90;;;;;;5033073;28;20232;-78
2024/01/01 08:19:39;;;;;;;9.50;5.78;;;9.30;99.90;;;;;;5040487;28;20239;-77
2024/01/01 08:22:06;;;;;;;5.25;4.57;;;9.40;99.90;;;;;;5033456;28;20221;-77
2024/01/01 08:24:35;;;;;;;7.97;4.78;;;9.30;99.90;;;;;;5033341;28;20229;-78
2024/01/01 08:27:14;;;;;;;7.10;4.63;;;9.30;99.90;;;;;;5032891;28;20556;-78
2024/01/01 08:29:41;;;;;;;6.70;4.45;;;9.30;99.90;;;;;;5033494;28;20680;-78
2024/01/01 08:32:12;;;;;;;8.48;4.93;;;9.40;99.90;;;;;;5033277;28;20221;-85
2024/01/01 08:34:39;;;;;;;6.10;4.07;;;9.40;99.90;;;;;;5033307;28;20233;-85
2024/01/01 08:37:06;;;;;;;8.00;4.20;;;9.40;99.90;;;;;;5032678;28;20644;-78
2024/01/01 08:39:35;;;;;;;5.60;5.00;;;9.40;99.90;;;;;;5033153;28;20232;-78
2024/01/01 08:42:02;;;;;;;7.22;4.47;;;9.40;99.90;;;;;;5032750;28;20221;-77
2024/01/01 08:44:30;;;;;;;5.72;4.20;;;9.30;99.90;;;;;;5040062;28;20216;-78
2024/01/01 08:46:57;;;;;;;7.22;4.47;;;9.30;99.90;;;;;;5033234;28;20221;-78
2024/01/01 08:49:24;;;;;;;9.82;5.15;;;9.30;99.90;;;;;;5034095;28;20540;-85
2024/01/01 08:51:51;;;;;;;6.82;4.60;;;9.40;99.90;;;;;;5033161;28;20223;-85
2024/01/01 08:54:19;;;;;;;5.40;4.50;;;9.40;99.90;;;;;;5032677;28;20295;-85
2024/01/01 08:56:47;;;;;;;6.55;3.90;;;9.40;99.90;;;;;;5032970;28;20284;-85
2024/01/01 08:59:15;;;;;;;7.13;5.65;;;9.50;99.90;;;;;;5033207;28;20243;-78
2024/01/01 09:01:44;;;;;;;7.43;4.43;;;9.50;99.90;;;;;;5024339;28;20229;-78
2024/01/01 09:04:11;;;;;;;7.43;5.55;;;9.60;99.90;;;;;;5033716;28;20541;-78
2024/01/01 09:06:38;;;;;;;6.80;4.15;;;9.60;99.90;;;;;;5032998;28;20225;-78
2024/01/01 09:09:10;;;;;;;9.82;5.03;;;9.60;99.90;;;;;;5031832;28;20232;-79
2024/01/01 09:11:38;;;;;;;4.53;3.85;;;9.60;99.90;;;;;;5033391;28;20221;-85
2024/01/01 09:14:06;;;;;;;7.10;4.07;;;9.60;99.90;;;;;;5036690;28;20539;-78
2024/01/01 09:16:33;;;;;;;6.75;3.70;;;9.70;99.90;;;;;;5036050;28;20312;-78
2024/01/01 09:19:00;;;;;;;7.65;4.75;;;9.70;99.90;;;;;;5038710;28;20221;-86
2024/01/01 09:21:27;;;;;;;4.90;4.38;;;9.70;99.90;;;;;;5036543;28;20235;-78
2024/01/01 09:24:00;;;;;;;8.02;4.82;;;9.60;99.90;;;;;;5035971;28;20237;-79
2024/01/01 09:26:27;;;;;;;4.50;3.72;;;9.60;99.90;;;;;;5035293;28;20354;-86
2024/01/01 09:28:54;;;;;;;8.48;5.10;;;9.60;99.90;;;;;;5045415;28;20329;-86
2024/01/01 09:31:23;;;;;;;4.97;4.28;;;9.60;99.90;;;;;;5036823;28;20566;-86
2024/01/01 09:33:50;;;;;;;4.50;4.07;;;9.60;99.90;;;;;;5036227;28;20567;-86
2024/01/01 09:36:17;;;;;;;5.32;4.30;;;9.60;99.90;;;;;;5036509;28;20240;-78
2024/01/01 09:38:47;;;;;;;6.07;4.45;;;9.70;99.90;;;;;;5025190;28;20225;-85
2024/01/01 09:41:14;;;;;;;5.68;4.03;;;9.80;99.90;;;;;;5037230;28;20217;-85
2024/01/01 09:43:48;;;;;;;4.07;3.67;;;9.80;99.90;;;;;;5039723;28;20233;-85
2024/01/01 09:46:20;;;;;;;7.80;3.70;;;9.80;99.90;;;;;;5033689;28;20217;-78
2024/01/01 09:48:48;;;;;;;5.22;4.05;;;9.80;99.90;;;;;;5036088;28;20308;-85
2024/01/01 09:51:15;;;;;;;4.90;3.72;;;9.70;99.90;;;;;;5036462;28;20221;-78
2024/01/01 09:53:46;;;;;;;7.85;4.00;;;9.70;99.90;;;;;;5035864;28;20226;-79
2024/01/01 09:56:13;;;;;;;7.00;3.65;;;9.70;99.90;;;;;;5035922;28;20298;-78
2024/01/01 09:58:41;;;;;;;4.35;3.95;;;9.70;99.90;;;;;;5035964;28;20283;-86
2024/01/01 10:01:13;;;;;;;5.75;4.50;;;9.70;99.90;;;;;;5034743;28;20287;-78
2024/01/01 10:03:40;;;;;;;6.35;3.78;;;9.80;99.90;;;;;;5035917;28;20232;-78
2024/01/01 10:06:10;;;;;;;6.25;4.43;;;9.70;99.90;;;;;;5035575;28;20256;-85
2024/01/01 10:08:38;;;;;;;7.38;4.47;;;9.70;99.90;;;;;;5035595;28;20225;-77
2024/01/01 10:11:20;;;;;;;8.85;4.85;;;9.70;99.90;;;;;;5035230;28;20236;-78
2024/01/01 10:13:49;;;;;;;4.95;4.00;;;9.70;99.90;;;;;;5035509;28;20243;-79
2024/01/01 10:16:26;;;;;;;7.22;3.75;;;9.70;99.90;;;;;;5028426;28;21073;-79
2024/01/01 10:18:55;;;;;;;9.35;4.30;;;9.70;99.90;;;;;;5046766;28;20240;-79
2024/01/01 10:21:27;;;;;;;10.05;5.45;;;9.70;99.90;;;;;;5035304;28;20642;-79
2024/01/01 10:23:54;;;;;;;8.40;5.55;;;9.70;99.90;;;;;;5034234;28;20229;-78
2024/01/01 10:26:24;;;;;;;6.78;5.40;;;9.70;99.90;;;;;;5034664;28;20252;-86
2024/01/01 10:28:52;;;;;;;7.55;5.32;;;9.70;99.90;;;;;;5035210;28;20234;-86
2024/01/01 10:31:19;;;;;;;5.40;4.78;;;9.70;99.90;;;;;;5034898;28;20229;-86
2024/01/01 10:33:49;;;;;;;13.85;6.55;;;9.80;99.90;;;;;;5035404;28;20256;-86
2024/01/01 10:36:19;;;;;;;5.22;4.30;;;9.80;99.90;;;;;;5035235;28;20232;-85
2024/01/01 10:38:50;;;;;;;7.45;6.72;;;9.80;99.90;;;;;;5035253;28;20260;-78
2024/01/01 10:41:21;;;;;;;11.07;8.30;;;9.80;99.90;;;;;;5034442;28;20704;-85
2024/01/01 10:43:51;;;;;;;11.98;6.93;;;9.80;99.90;;;;;;5034963;28;20696;-78
2024/01/01 10:46:21;;;;;;;8.07;6.05;;;9.80;99.90;;;;;;5034683;28;20236;-85
2024/01/01 10:48:49;;;;;;;8.02;5.28;;;9.80;99.90;;;;;;5035298;28;20703;-85
2024/01/01 10:51:31;;;;;;;6.72;4.60;;;9.80;99.90;;;;;;5034553;28;20229;-78
2024/01/01 10:54:25;;;;;;;8.80;4.30;;;9.80;99.90;;;;;;5034481;28;20252;-85
2024/01/01 10:57:00;;;;;;;6.93;4.63;;;9.80;99.90;;;;;;5034787;28;20225;-78
2024/01/01 10:59:35;;;;;;;6.28;4.13;;;9.80;99.90;;;;;;5034816;28;20620;-78
2024/01/01 11:02:02;;;;;;;8.40;4.00;;;9.80;99.90;;;;;;5033343;28;20231;-78
2024/01/01 11:04:29;;;;;;;8.55;6.05;;;9.80;99.90;;;;;;5034870;28;20226;-86
2024/01/01 11:06:56;;;;;;;6.55;5.43;;;9.80;99.90;;;;;;5034805;28;20688;-86
2024/01/01 11:09:34;;;;;;;8.82;4.57;;;9.90;99.90;;;;;;5035233;28;20232;-86
2024/01/01 11:12:02;;;;;;;6.85;4.45;;;9.90;99.90;;;;;;5034482;28;20249;-85
2024/01/01 11:14:30;;;;;;;8.55;5.15;;;9.90;99.90;;;;;;5034543;28;20236;-78
2024/01/01 11:16:58;;;;;;;6.57;5.20;;;9.90;99.90;;;;;;5033748;28;20236;-85
2024/01/01 11:19:41;;;;;;;4.53;4.10;;;10.00;99.90;;;;;;5034947;28;20240;-87
2024/01/01 11:22:35;;;;;;;5.25;4.47;;;10.00;99.90;;;;;;5031982;28;20229;-86
2024/01/01 11:25:05;;;;;;;10.90;7.13;;;10.00;99.90;;;;;;5033963;28;20253;-85
2024/01/01 11:27:33;;;;;;;11.35;7.60;;;10.00;99.90;;;;;;5034419;28;20308;-77
2024/01/01 11:30:02;;;;;;;9.30;6.45;;;10.00;99.90;;;;;;5033429;28;20240;-78
2024/01/01 11:32:29;;;;;;;11.13;7.95;;;10.00;99.90;;;;;;5034132;28;20225;-79
2024/01/01 11:35:10;;;;;;;11.52;7.80;;;10.10;99.90;;;;;;5033895;28;20563;-85
2024/01/01 11:37:38;;;;;;;7.32;5.50;;;10.10;99.90;;;;;;5033903;28;20233;-86
2024/01/01 11:40:11;;;;;;;6.20;4.97;;;10.10;99.90;;;;;;5033320;28;20229;-78
2024/01/01 11:42:38;;;;;;;6.15;4.07;;;10.10;99.90;;;;;;5034134;28;20673;-78
2024/01/01 11:45:07;;;;;;;10.18;5.68;;;10.20;99.90;;;;;;5033703;28;20249;-79
2024/01/01 11:47:35;;;;;;;11.43;7.95;;;10.20;99.90;;;;;;5033794;28;20229;-78
2024/01/01 11:50:03;;;;;;;10.70;7.20;;;10.20;99.90;;;;;;5033273;28;20291;-80
2024/01/01 11:52:30;;;;;;;10.90;8.38;;;10.20;99.90;;;;;;5033786;28;20700;-86
2024/01/01 11:54:57;;;;;;;9.40;6.18;;;10.30;99.90;;;;;;5033549;28;20230;-87
2024/01/01 11:57:36;;;;;;;8.00;4.05;;;10.30;99.90;;;;;;5033958;28;20688;-80
2024/01/01 12:00:04;;;;;;;4.90;4.10;;;10.30;99.90;;;;;;5033513;28;20316;-86
2024/01/01 12:02:49;;;;;;;7.10;4.55;;;10.30;99.90;;;;;;5032838;28;20298;-86
2024/01/01 12:05:20;;;;;;;7.18;4.32;;;10.30;99.90;;;;;;5032931;28;20233;-87
2024/01/01 12:07:51;;;;;;;5.93;4.05;;;10.30;99.90;;;;;;5033766;28;20233;-79
2024/01/01 12:10:18;;;;;;;7.28;4.60;;;10.30;99.90;;;;;;5033806;28;20218;-87
2024/01/01 12:12:47;;;;;;;6.95;4.63;;;10.30;99.90;;;;;;5033356;28;20232;-79
2024/01/01 12:15:17;;;;;;;5.03;3.95;;;10.30;99.90;;;;;;5032839;28;20768;-79
2024/01/01 12:17:49;;;;;;;9.85;4.93;;;10.30;99.90;;;;;;5033656;28;20249;-79
2024/01/01 12:20:18;;;;;;;6.03;4.30;;;10.30;99.90;;;;;;5032890;28;20217;-79
2024/01/01 12:22:48;;;;;;;7.35;3.95;;;10.30;99.90;;;;;;5033530;28;20240;-87
2024/01/01 12:25:16;;;;;;;4.80;3.63;;;10.40;99.90;;;;;;5033183;28;20229;-79
2024/01/01 12:27:44;;;;;;;5.97;3.75;;;10.40;99.90;;;;;;5033425;28;20314;-79
2024/01/01 12:30:28;;;;;;;8.30;4.25;;;10.40;99.90;;;;;;5032894;28;20225;-87
2024/01/01 12:32:58;;;;;;;5.97;3.50;;;10.30;99.90;;;;;;5033081;28;20235;-87
2024/01/01 12:35:26;;;;;;;5.28;3.35;;;10.30;99.90;;;;;;5033308;28;20541;-87
2024/01/01 12:37:53;;;;;;;9.25;3.85;;;10.40;99.90;;;;;;5033299;28;20221;-87
2024/01/01 12:40:21;;;;;;;7.00;3.38;;;10.40;99.90;;;;;;5032651;28;20575;-87
2024/01/01 12:42:48;;;;;;;7.45;4.25;;;10.40;99.90;;;;;;5033398;28;20224;-87
2024/01/01 12:45:16;;;;;;;8.02;4.32;;;10.40;99.90;;;;;;5032218;28;20544;-87
2024/01/01 12:47:44;;;;;;;7.80;5.00;;;10.40;99.90;;;;;;5034502;28;20221;-79
2024/01/01 12:50:11;;;;;;;8.50;4.35;;;10.50;99.90;;;;;;5037226;28;20699;-86